sensor_id;sensor_type;location;lat;lon;timestamp;pressure;altitude;pressure_sealevel;temperature;humidity
50093;BME280;35974;47.752;10.290;2023-03-20T00:02:17;94041.03;;;6.23;100.00
50093;BME280;35974;47.752;10.290;2023-03-20T00:04:44;94035.38;;;6.20;100.00
50093;BME280;35974;47.752;10.290;2023-03-20T00:07:11;93999.66;;;5.99;100.00
50093;BME280;35974;47.752;10.290;2023-03-20T00:09:38;94038.84;;;6.12;100.00
50093;BME280;35974;47.752;10.290;2023-03-20T00:12:04;94012.91;;;6.04;100.00
50093;BME280;35974;47.752;10.290;2023-03-20T00:14:33;94029.50;;;6.03;100.00
50093;BME280;35974;47.752;10.290;2023-03-20T00:16:59;93999.09;;;5.80;100.00
50093;BME280;35974;47.752;10.290;2023-03-20T00:19:27;94014.00;;;5.86;100.00
50093;BME280;35974;47.752;10.290;2023-03-20T00:21:57;94000.34;;;5.84;100.00
50093;BME280;35974;47.752;10.290;2023-03-20T00:24:24;94006.53;;;5.83;100.00
50093;BME280;35974;47.752;10.290;2023-03-20T00:26:51;94040.56;;;5.97;100.00
50093;BME280;35974;47.752;10.290;2023-03-20T00:29:24;94040.88;;;5.94;100.00
50093;BME280;35974;47.752;10.290;2023-03-20T00:31:51;94053.16;;;6.08;100.00
50093;BME280;35974;47.752;10.290;2023-03-20T00:34:20;94014.31;;;5.83;100.00
50093;BME280;35974;47.752;10.290;2023-03-20T00:36:49;94046.22;;;6.00;100.00
50093;BME280;35974;47.752;10.290;2023-03-20T00:39:16;94019.81;;;5.89;100.00
50093;BME280;35974;47.752;10.290;2023-03-20T00:44:28;94058.03;;;6.11;100.00
50093;BME280;35974;47.752;10.290;2023-03-20T00:46:59;94001.72;;;5.72;100.00
50093;BME280;35974;47.752;10.290;2023-03-20T00:49:29;94049.94;;;6.06;100.00
50093;BME280;35974;47.752;10.290;2023-03-20T00:51:56;94016.19;;;5.98;100.00
50093;BME280;35974;47.752;10.290;2023-03-20T00:54:23;94050.28;;;6.49;100.00
50093;BME280;35974;47.752;10.290;2023-03-20T00:56:57;94028.44;;;6.12;100.00
50093;BME280;35974;47.752;10.290;2023-03-20T00:59:28;94036.91;;;6.14;100.00
50093;BME280;35974;47.752;10.290;2023-03-20T01:01:58;94004.66;;;6.00;100.00
50093;BME280;35974;47.752;10.290;2023-03-20T01:04:29;94018.06;;;6.12;100.00
50093;BME280;35974;47.752;10.290;2023-03-20T01:06:56;94022.56;;;6.18;100.00
50093;BME280;35974;47.752;10.290;2023-03-20T01:09:22;94028.72;;;6.26;100.00
50093;BME280;35974;47.752;10.290;2023-03-20T01:11:49;94013.81;;;6.19;100.00
50093;BME280;35974;47.752;10.290;2023-03-20T01:14:17;94027.53;;;6.28;100.00
50093;BME280;35974;47.752;10.290;2023-03-20T01:16:44;94047.41;;;6.44;100.00
50093;BME280;35974;47.752;10.290;2023-03-20T01:19:14;94044.28;;;6.49;100.00
50093;BME280;35974;47.752;10.290;2023-03-20T01:21:42;94036.09;;;6.37;100.00
50093;BME280;35974;47.752;10.290;2023-03-20T01:24:09;94029.06;;;6.22;100.00
50093;BME280;35974;47.752;10.290;2023-03-20T01:26:39;94041.31;;;6.37;100.00
50093;BME280;35974;47.752;10.290;2023-03-20T01:29:22;94028.00;;;6.32;100.00
50093;BME280;35974;47.752;10.290;2023-03-20T01:31:50;94045.44;;;6.46;100.00
50093;BME280;35974;47.752;10.290;2023-03-20T01:34:18;94045.44;;;6.46;100.00
50093;BME280;35974;47.752;10.290;2023-03-20T01:36:49;94045.78;;;6.43;100.00
50093;BME280;35974;47.752;10.290;2023-03-20T01:39:16;94030.31;;;6.27;100.00
50093;BME280;35974;47.752;10.290;2023-03-20T01:41:44;94033.53;;;6.29;100.00
50093;BME280;35974;47.752;10.290;2023-03-20T01:44:29;94022.78;;;6.32;100.00
50093;BME280;35974;47.752;10.290;2023-03-20T01:46:57;94031.59;;;6.31;100.00
50093;BME280;35974;47.752;10.290;2023-03-20T01:51:51;94008.94;;;6.16;100.00
50093;BME280;35974;47.752;10.290;2023-03-20T01:56:54;94041.31;;;6.37;100.00
50093;BME280;35974;47.752;10.290;2023-03-20T01:59:46;93998.91;;;6.13;100.00
50093;BME280;35974;47.752;10.290;2023-03-20T02:02:18;94031.00;;;6.20;100.00
50093;BME280;35974;47.752;10.290;2023-03-20T02:04:50;94002.88;;;5.93;100.00
50093;BME280;35974;47.752;10.290;2023-03-20T02:07:19;94008.38;;;6.06;100.00
50093;BME280;35974;47.752;10.290;2023-03-20T02:09:47;94033.41;;;6.22;100.00
50093;BME280;35974;47.752;10.290;2023-03-20T02:12:15;94007.44;;;5.99;100.00
50093;BME280;35974;47.752;10.290;2023-03-20T02:14:44;94002.81;;;6.09;100.00
50093;BME280;35974;47.752;10.290;2023-03-20T02:17:12;93999.31;;;5.94;100.00
50093;BME280;35974;47.752;10.290;2023-03-20T02:36:14;94037.31;;;5.95;100.00
50093;BME280;35974;47.752;10.290;2023-03-20T02:49:50;94040.22;;;6.00;100.00
50093;BME280;35974;47.752;10.290;2023-03-20T02:52:30;93973.44;;;5.54;100.00
50093;BME280;35974;47.752;10.290;2023-03-20T03:00:33;94026.31;;;5.84;100.00
50093;BME280;35974;47.752;10.290;2023-03-20T03:03:10;94048.03;;;5.92;100.00
50093;BME280;35974;47.752;10.290;2023-03-20T03:05:47;94042.84;;;5.92;100.00
50093;BME280;35974;47.752;10.290;2023-03-20T03:08:17;94058.44;;;5.92;100.00
50093;BME280;35974;47.752;10.290;2023-03-20T03:10:53;94049.06;;;5.82;100.00
50093;BME280;35974;47.752;10.290;2023-03-20T03:13:24;94065.53;;;6.06;100.00
50093;BME280;35974;47.752;10.290;2023-03-20T03:15:54;94028.94;;;5.76;100.00
50093;BME280;35974;47.752;10.290;2023-03-20T03:18:24;94069.09;;;6.05;100.00
50093;BME280;35974;47.752;10.290;2023-03-20T03:20:55;94059.03;;;6.02;100.00
50093;BME280;35974;47.752;10.290;2023-03-20T03:23:39;94073.31;;;6.06;100.00
50093;BME280;35974;47.752;10.290;2023-03-20T03:26:11;94070.06;;;6.04;100.00
50093;BME280;35974;47.752;10.290;2023-03-20T03:28:42;94075.38;;;6.42;100.00
50093;BME280;35974;47.752;10.290;2023-03-20T03:31:15;94072.56;;;6.20;100.00
50093;BME280;35974;47.752;10.290;2023-03-20T03:33:49;94032.47;;;5.92;100.00
50093;BME280;35974;47.752;10.290;2023-03-20T03:42:02;94032.47;;;5.92;100.00
50093;BME280;35974;47.752;10.290;2023-03-20T03:47:17;94060.69;;;6.03;100.00
50093;BME280;35974;47.752;10.290;2023-03-20T03:49:49;94041.84;;;6.01;100.00
50093;BME280;35974;47.752;10.290;2023-03-20T03:52:22;94070.63;;;6.22;100.00
50093;BME280;35974;47.752;10.290;2023-03-20T03:54:53;94055.38;;;6.19;100.00
50093;BME280;35974;47.752;10.290;2023-03-20T03:57:33;94060.97;;;6.08;100.00
50093;BME280;35974;47.752;10.290;2023-03-20T04:00:03;94062.88;;;6.14;100.00
50093;BME280;35974;47.752;10.290;2023-03-20T04:02:32;94058.03;;;6.11;100.00
50093;BME280;35974;47.752;10.290;2023-03-20T04:05:00;94068.31;;;6.28;100.00
50093;BME280;35974;47.752;10.290;2023-03-20T04:07:28;94088.09;;;6.37;100.00
50093;BME280;35974;47.752;10.290;2023-03-20T04:09:54;94050.19;;;6.19;100.00
50093;BME280;35974;47.752;10.290;2023-03-20T04:12:35;94087.72;;;6.40;100.00
50093;BME280;35974;47.752;10.290;2023-03-20T04:15:03;94115.63;;;6.46;100.00
50093;BME280;35974;47.752;10.290;2023-03-20T04:17:30;94104.53;;;6.52;100.00
50093;BME280;35974;47.752;10.290;2023-03-20T04:19:56;94083.22;;;6.34;100.00
50093;BME280;35974;47.752;10.290;2023-03-20T04:22:23;94106.22;;;6.45;100.00
50093;BME280;35974;47.752;10.290;2023-03-20T04:24:49;94058.16;;;6.18;100.00
50093;BME280;35974;47.752;10.290;2023-03-20T04:27:16;94105.50;;;6.51;100.00
50093;BME280;35974;47.752;10.290;2023-03-20T04:29:43;94067.84;;;6.24;100.00
50093;BME280;35974;47.752;10.290;2023-03-20T04:32:09;94095.34;;;6.41;100.00
50093;BME280;35974;47.752;10.290;2023-03-20T04:34:36;94073.81;;;6.33;100.00
50093;BME280;35974;47.752;10.290;2023-03-20T04:37:02;94073.50;;;6.28;100.00
50093;BME280;35974;47.752;10.290;2023-03-20T04:39:30;94074.09;;;6.38;100.00
50093;BME280;35974;47.752;10.290;2023-03-20T04:41:57;94083.22;;;6.34;100.00
50093;BME280;35974;47.752;10.290;2023-03-20T04:44:23;94076.63;;;6.46;100.00
50093;BME280;35974;47.752;10.290;2023-03-20T04:46:49;94078.03;;;6.34;100.00
50093;BME280;35974;47.752;10.290;2023-03-20T04:49:16;94084.47;;;6.38;100.00
50093;BME280;35974;47.752;10.290;2023-03-20T04:51:42;94095.13;;;6.51;100.00
50093;BME280;35974;47.752;10.290;2023-03-20T04:54:09;94094.31;;;6.51;100.00
50093;BME280;35974;47.752;10.290;2023-03-20T04:56:35;94104.69;;;6.74;100.00
50093;BME280;35974;47.752;10.290;2023-03-20T04:59:01;94108.44;;;6.56;100.00
50093;BME280;35974;47.752;10.290;2023-03-20T05:01:28;94099.09;;;6.39;100.00
50093;BME280;35974;47.752;10.290;2023-03-20T05:03:54;94027.25;;;5.92;100.00
50093;BME280;35974;47.752;10.290;2023-03-20T05:06:27;94111.09;;;6.40;100.00
50093;BME280;35974;47.752;10.290;2023-03-20T05:08:53;94094.66;;;6.25;100.00
50093;BME280;35974;47.752;10.290;2023-03-20T05:11:20;94101.41;;;6.34;100.00
50093;BME280;35974;47.752;10.290;2023-03-20T05:13:46;94108.50;;;6.40;100.00
50093;BME280;35974;47.752;10.290;2023-03-20T05:16:13;94088.44;;;6.34;100.00
50093;BME280;35974;47.752;10.290;2023-03-20T05:18:39;94098.59;;;6.67;100.00
50093;BME280;35974;47.752;10.290;2023-03-20T05:21:07;94089.69;;;6.38;100.00
50093;BME280;35974;47.752;10.290;2023-03-20T05:23:33;94108.75;;;6.53;100.00
50093;BME280;35974;47.752;10.290;2023-03-20T05:26:00;94098.38;;;6.53;100.00
50093;BME280;35974;47.752;10.290;2023-03-20T05:28:27;94117.19;;;6.55;100.00
50093;BME280;35974;47.752;10.290;2023-03-20T05:30:54;94115.56;;;6.54;100.00
50093;BME280;35974;47.752;10.290;2023-03-20T05:33:21;94113.69;;;6.40;100.00
50093;BME280;35974;47.752;10.290;2023-03-20T05:35:48;94145.72;;;6.40;100.00
50093;BME280;35974;47.752;10.290;2023-03-20T05:38:14;94119.50;;;6.50;100.00
50093;BME280;35974;47.752;10.290;2023-03-20T05:40:41;94144.38;;;6.76;100.00
50093;BME280;35974;47.752;10.290;2023-03-20T05:43:07;94132.91;;;6.62;100.00
50093;BME280;35974;47.752;10.290;2023-03-20T05:45:34;94131.44;;;6.68;100.00
50093;BME280;35974;47.752;10.290;2023-03-20T05:48:01;94158.69;;;6.72;100.00
50093;BME280;35974;47.752;10.290;2023-03-20T05:50:27;94151.50;;;6.74;100.00
50093;BME280;35974;47.752;10.290;2023-03-20T05:52:53;94150.19;;;6.78;100.00
50093;BME280;35974;47.752;10.290;2023-03-20T05:55:20;94146.59;;;6.79;100.00
50093;BME280;35974;47.752;10.290;2023-03-20T05:57:46;94135.00;;;6.67;100.00
50093;BME280;35974;47.752;10.290;2023-03-20T06:00:13;94135.00;;;6.67;100.00
50093;BME280;35974;47.752;10.290;2023-03-20T06:02:40;94115.09;;;6.51;100.00
50093;BME280;35974;47.752;10.290;2023-03-20T06:05:07;94128.50;;;6.63;100.00
50093;BME280;35974;47.752;10.290;2023-03-20T06:07:34;94151.16;;;6.77;100.00
50093;BME280;35974;47.752;10.290;2023-03-20T06:10:00;94136.25;;;6.71;100.00
50093;BME280;35974;47.752;10.290;2023-03-20T06:12:27;94132.91;;;6.85;100.00
50093;BME280;35974;47.752;10.290;2023-03-20T06:14:53;94126.22;;;6.68;100.00
50093;BME280;35974;47.752;10.290;2023-03-20T06:17:20;94137.19;;;6.78;100.00
50093;BME280;35974;47.752;10.290;2023-03-20T06:19:46;94155.84;;;7.05;100.00
50093;BME280;35974;47.752;10.290;2023-03-20T06:22:12;94138.28;;;7.07;100.00
50093;BME280;35974;47.752;10.290;2023-03-20T06:24:40;94137.13;;;7.24;100.00
50093;BME280;35974;47.752;10.290;2023-03-20T06:27:06;94134.94;;;7.36;100.00
50093;BME280;35974;47.752;10.290;2023-03-20T06:29:33;94144.34;;;7.52;100.00
50093;BME280;35974;47.752;10.290;2023-03-20T06:31:59;94150.75;;;7.49;100.00
50093;BME280;35974;47.752;10.290;2023-03-20T06:34:26;94155.59;;;7.53;100.00
50093;BME280;35974;47.752;10.290;2023-03-20T06:36:52;94131.41;;;7.44;100.00
50093;BME280;35974;47.752;10.290;2023-03-20T06:39:19;94153.72;;;7.61;100.00
50093;BME280;35974;47.752;10.290;2023-03-20T06:41:46;94157.50;;;7.74;100.00
50093;BME280;35974;47.752;10.290;2023-03-20T06:44:12;94129.84;;;7.73;100.00
50093;BME280;35974;47.752;10.290;2023-03-20T06:46:39;94149.41;;;7.98;100.00
50093;BME280;35974;47.752;10.290;2023-03-20T06:49:05;94154.53;;;8.06;100.00
50093;BME280;35974;47.752;10.290;2023-03-20T06:51:32;94162.91;;;7.87;100.00
50093;BME280;35974;47.752;10.290;2023-03-20T06:53:58;94168.81;;;8.11;100.00
50093;BME280;35974;47.752;10.290;2023-03-20T06:56:24;94175.50;;;8.35;100.00
50093;BME280;35974;47.752;10.290;2023-03-20T06:58:51;94181.63;;;8.42;100.00
50093;BME280;35974;47.752;10.290;2023-03-20T07:01:17;94178.03;;;8.28;100.00
50093;BME280;35974;47.752;10.290;2023-03-20T07:03:46;94192.81;;;8.21;100.00
50093;BME280;35974;47.752;10.290;2023-03-20T07:06:12;94110.69;;;7.50;100.00
50093;BME280;35974;47.752;10.290;2023-03-20T07:08:39;94159.19;;;8.11;100.00
50093;BME280;35974;47.752;10.290;2023-03-20T07:11:05;94193.22;;;8.39;100.00
50093;BME280;35974;47.752;10.290;2023-03-20T07:13:32;94159.78;;;8.28;100.00
50093;BME280;35974;47.752;10.290;2023-03-20T07:16:00;94155.31;;;8.22;100.00
50093;BME280;35974;47.752;10.290;2023-03-20T07:18:30;94170.44;;;8.12;100.00
50093;BME280;35974;47.752;10.290;2023-03-20T07:20:59;94175.03;;;7.95;100.00
50093;BME280;35974;47.752;10.290;2023-03-20T07:23:28;94184.53;;;8.02;100.00
50093;BME280;35974;47.752;10.290;2023-03-20T07:25:55;94168.97;;;7.64;100.00
50093;BME280;35974;47.752;10.290;2023-03-20T07:28:21;94175.31;;;7.85;100.00
50093;BME280;35974;47.752;10.290;2023-03-20T07:30:48;94181.75;;;8.19;100.00
50093;BME280;35974;47.752;10.290;2023-03-20T07:33:14;94200.78;;;8.34;100.00
50093;BME280;35974;47.752;10.290;2023-03-20T07:35:42;94207.81;;;8.49;100.00
50093;BME280;35974;47.752;10.290;2023-03-20T07:38:08;94179.53;;;8.67;100.00
50093;BME280;35974;47.752;10.290;2023-03-20T07:40:34;94169.81;;;8.61;100.00
50093;BME280;35974;47.752;10.290;2023-03-20T07:43:01;94194.84;;;8.92;100.00
50093;BME280;35974;47.752;10.290;2023-03-20T07:45:28;94184.03;;;9.16;100.00
50093;BME280;35974;47.752;10.290;2023-03-20T07:47:54;94174.47;;;9.02;100.00
50093;BME280;35974;47.752;10.290;2023-03-20T07:50:21;94188.50;;;9.23;100.00
50093;BME280;35974;47.752;10.290;2023-03-20T07:52:48;94207.91;;;9.35;100.00
50093;BME280;35974;47.752;10.290;2023-03-20T07:55:15;94116.03;;;9.03;100.00
50093;BME280;35974;47.752;10.290;2023-03-20T07:57:43;94165.31;;;9.34;100.00
50093;BME280;35974;47.752;10.290;2023-03-20T08:00:10;94203.28;;;9.59;100.00
50093;BME280;35974;47.752;10.290;2023-03-20T08:02:37;94194.59;;;9.30;100.00
50093;BME280;35974;47.752;10.290;2023-03-20T08:05:04;94192.75;;;9.02;100.00
50093;BME280;35974;47.752;10.290;2023-03-20T08:07:31;94191.91;;;9.02;100.00
50093;BME280;35974;47.752;10.290;2023-03-20T08:09:57;94177.81;;;8.96;100.00
50093;BME280;35974;47.752;10.290;2023-03-20T08:12:26;94173.72;;;8.87;100.00
50093;BME280;35974;47.752;10.290;2023-03-20T08:14:52;94180.66;;;8.58;100.00
50093;BME280;35974;47.752;10.290;2023-03-20T08:17:19;94175.34;;;8.88;100.00
50093;BME280;35974;47.752;10.290;2023-03-20T08:19:47;94193.47;;;8.96;100.00
50093;BME280;35974;47.752;10.290;2023-03-20T08:22:13;94147.19;;;8.83;100.00
50093;BME280;35974;47.752;10.290;2023-03-20T08:24:40;94176.84;;;8.97;100.00
50093;BME280;35974;47.752;10.290;2023-03-20T08:27:06;94165.25;;;9.06;100.00
50093;BME280;35974;47.752;10.290;2023-03-20T08:29:33;94176.84;;;9.19;100.00
50093;BME280;35974;47.752;10.290;2023-03-20T08:31:59;94173.47;;;9.03;100.00
50093;BME280;35974;47.752;10.290;2023-03-20T08:34:26;94149.97;;;9.03;100.00
50093;BME280;35974;47.752;10.290;2023-03-20T08:36:52;94163.38;;;9.43;100.00
50093;BME280;35974;47.752;10.290;2023-03-20T08:39:19;94163.56;;;9.70;100.00
50093;BME280;35974;47.752;10.290;2023-03-20T08:41:45;94182.06;;;9.68;100.00
50093;BME280;35974;47.752;10.290;2023-03-20T08:44:12;94166.41;;;9.75;100.00
50093;BME280;35974;47.752;10.290;2023-03-20T08:46:39;94166.78;;;9.72;100.00
50093;BME280;35974;47.752;10.290;2023-03-20T08:49:05;94170.41;;;9.71;100.00
50093;BME280;35974;47.752;10.290;2023-03-20T08:51:32;94158.28;;;9.63;100.00
50093;BME280;35974;47.752;10.290;2023-03-20T08:53:59;94171.16;;;9.65;100.00
50093;BME280;35974;47.752;10.290;2023-03-20T08:56:25;94156.41;;;9.50;100.00
50093;BME280;35974;47.752;10.290;2023-03-20T08:58:52;94162.69;;;9.63;100.00
50093;BME280;35974;47.752;10.290;2023-03-20T09:01:21;94195.09;;;9.97;100.00
50093;BME280;35974;47.752;10.290;2023-03-20T09:03:48;94142.31;;;9.23;100.00
50093;BME280;35974;47.752;10.290;2023-03-20T09:06:14;94152.44;;;9.33;100.00
50093;BME280;35974;47.752;10.290;2023-03-20T09:08:41;94166.19;;;9.70;100.00
50093;BME280;35974;47.752;10.290;2023-03-20T09:11:07;94140.31;;;9.53;100.00
50093;BME280;35974;47.752;10.290;2023-03-20T09:13:34;94176.66;;;9.48;100.00
50093;BME280;35974;47.752;10.290;2023-03-20T09:16:01;94158.03;;;9.30;100.00
50093;BME280;35974;47.752;10.290;2023-03-20T09:18:28;94166.38;;;9.19;100.00
50093;BME280;35974;47.752;10.290;2023-03-20T09:20:54;94201.19;;;9.47;100.00
50093;BME280;35974;47.752;10.290;2023-03-20T09:23:22;94184.38;;;9.85;100.00
50093;BME280;35974;47.752;10.290;2023-03-20T09:25:48;94185.22;;;9.64;100.00
50093;BME280;35974;47.752;10.290;2023-03-20T09:28:15;94186.78;;;9.30;100.00
50093;BME280;35974;47.752;10.290;2023-03-20T09:30:41;94166.13;;;9.92;100.00
50093;BME280;35974;47.752;10.290;2023-03-20T09:33:09;94163.72;;;9.97;100.00
50093;BME280;35974;47.752;10.290;2023-03-20T09:35:36;94180.72;;;10.14;100.00
50093;BME280;35974;47.752;10.290;2023-03-20T09:38:02;94172.03;;;10.42;100.00
50093;BME280;35974;47.752;10.290;2023-03-20T09:43:16;94148.97;;;10.17;100.00
50093;BME280;35974;47.752;10.290;2023-03-20T09:45:58;94164.66;;;10.17;100.00
50093;BME280;35974;47.752;10.290;2023-03-20T09:48:43;94178.16;;;9.93;100.00
50093;BME280;35974;47.752;10.290;2023-03-20T09:51:15;94176.69;;;10.18;100.00
50093;BME280;35974;47.752;10.290;2023-03-20T09:53:59;94170.25;;;10.14;98.23
50093;BME280;35974;47.752;10.290;2023-03-20T09:56:29;94141.13;;;9.82;99.00
50093;BME280;35974;47.752;10.290;2023-03-20T09:59:01;94150.22;;;9.86;95.58
50093;BME280;35974;47.752;10.290;2023-03-20T10:01:41;94148.56;;;9.85;96.71
50093;BME280;35974;47.752;10.290;2023-03-20T10:04:10;94132.25;;;9.48;97.87
50093;BME280;35974;47.752;10.290;2023-03-20T10:06:37;94161.47;;;9.59;100.00
50093;BME280;35974;47.752;10.290;2023-03-20T10:09:20;94146.78;;;9.93;96.79
50093;BME280;35974;47.752;10.290;2023-03-20T10:12:15;94179.78;;;9.94;97.65
50093;BME280;35974;47.752;10.290;2023-03-20T10:17:55;94166.94;;;9.99;100.00
50093;BME280;35974;47.752;10.290;2023-03-20T10:20:28;94173.22;;;10.46;100.00
50093;BME280;35974;47.752;10.290;2023-03-20T10:22:58;94164.97;;;11.24;95.54
50093;BME280;35974;47.752;10.290;2023-03-20T10:25:37;94174.63;;;11.17;95.38
50093;BME280;35974;47.752;10.290;2023-03-20T10:28:10;94170.06;;;10.57;92.63
50093;BME280;35974;47.752;10.290;2023-03-20T10:36:54;94152.75;;;10.56;92.29
50093;BME280;35974;47.752;10.290;2023-03-20T10:42:18;94157.25;;;10.76;87.82
50093;BME280;35974;47.752;10.290;2023-03-20T10:44:53;94176.00;;;10.99;87.74
50093;BME280;35974;47.752;10.290;2023-03-20T10:47:23;94181.78;;;10.75;90.40
50093;BME280;35974;47.752;10.290;2023-03-20T10:50:03;94171.31;;;10.75;88.77
50093;BME280;35974;47.752;10.290;2023-03-20T10:52:33;94175.03;;;11.14;87.28
50093;BME280;35974;47.752;10.290;2023-03-20T10:55:09;94163.34;;;11.10;82.76
50093;BME280;35974;47.752;10.290;2023-03-20T10:57:39;94176.97;;;10.78;87.68
50093;BME280;35974;47.752;10.290;2023-03-20T11:00:19;94131.81;;;10.50;85.82
50093;BME280;35974;47.752;10.290;2023-03-20T11:02:46;94185.03;;;10.84;85.39
50093;BME280;35974;47.752;10.290;2023-03-20T11:05:24;94164.53;;;11.01;87.78
50093;BME280;35974;47.752;10.290;2023-03-20T11:08:03;94168.50;;;10.70;86.08
50093;BME280;35974;47.752;10.290;2023-03-20T11:10:34;94145.22;;;11.02;84.53
50093;BME280;35974;47.752;10.290;2023-03-20T11:15:53;94156.69;;;11.14;83.59
50093;BME280;35974;47.752;10.290;2023-03-20T11:18:23;94170.63;;;11.21;81.45
50093;BME280;35974;47.752;10.290;2023-03-20T11:20:53;94171.81;;;11.39;81.17
50093;BME280;35974;47.752;10.290;2023-03-20T11:23:26;94142.41;;;11.23;79.90
50093;BME280;35974;47.752;10.290;2023-03-20T11:26:04;94172.66;;;11.46;81.71
50093;BME280;35974;47.752;10.290;2023-03-20T11:28:37;94166.38;;;11.33;81.60
50093;BME280;35974;47.752;10.290;2023-03-20T11:31:17;94174.84;;;11.15;85.36
50093;BME280;35974;47.752;10.290;2023-03-20T11:33:50;94175.97;;;10.73;88.80
50093;BME280;35974;47.752;10.290;2023-03-20T11:36:27;94158.50;;;11.00;86.21
50093;BME280;35974;47.752;10.290;2023-03-20T11:39:15;94174.63;;;11.30;85.89
50093;BME280;35974;47.752;10.290;2023-03-20T11:41:51;94160.16;;;11.34;83.89
50093;BME280;35974;47.752;10.290;2023-03-20T11:44:29;94172.63;;;11.52;83.48
50093;BME280;35974;47.752;10.290;2023-03-20T11:47:18;94164.56;;;11.94;85.12
50093;BME280;35974;47.752;10.290;2023-03-20T11:49:54;94165.28;;;12.28;80.27
50093;BME280;35974;47.752;10.290;2023-03-20T11:52:47;94156.75;;;12.39;81.92
50093;BME280;35974;47.752;10.290;2023-03-20T11:55:31;94157.63;;;12.33;80.17
50093;BME280;35974;47.752;10.290;2023-03-20T11:58:00;94125.81;;;11.89;80.68
50093;BME280;35974;47.752;10.290;2023-03-20T12:00:40;94156.53;;;11.42;82.24
50093;BME280;35974;47.752;10.290;2023-03-20T12:03:35;94152.06;;;11.69;85.25
50093;BME280;35974;47.752;10.290;2023-03-20T12:06:05;94113.38;;;11.31;83.12
50093;BME280;35974;47.752;10.290;2023-03-20T12:08:37;94117.00;;;11.30;84.96
50093;BME280;35974;47.752;10.290;2023-03-20T12:11:30;94145.63;;;11.25;83.70
50093;BME280;35974;47.752;10.290;2023-03-20T12:14:01;94128.88;;;10.99;82.66
50093;BME280;35974;47.752;10.290;2023-03-20T12:16:31;94117.34;;;10.60;86.00
50093;BME280;35974;47.752;10.290;2023-03-20T12:19:08;94124.22;;;10.75;83.94
50093;BME280;35974;47.752;10.290;2023-03-20T12:22:00;94103.66;;;10.72;84.45
50093;BME280;35974;47.752;10.290;2023-03-20T12:24:36;94124.28;;;11.08;84.88
50093;BME280;35974;47.752;10.290;2023-03-20T12:27:27;94133.94;;;11.48;81.85
50093;BME280;35974;47.752;10.290;2023-03-20T12:30:00;94105.13;;;11.41;84.74
50093;BME280;35974;47.752;10.290;2023-03-20T12:32:39;94098.47;;;10.98;82.12
50093;BME280;35974;47.752;10.290;2023-03-20T12:35:14;94092.44;;;11.31;82.65
50093;BME280;35974;47.752;10.290;2023-03-20T12:37:42;94127.88;;;11.27;85.34
50093;BME280;35974;47.752;10.290;2023-03-20T12:40:16;94119.44;;;11.25;83.40
50093;BME280;35974;47.752;10.290;2023-03-20T12:43:21;94095.66;;;11.20;86.00
50093;BME280;35974;47.752;10.290;2023-03-20T12:46:06;94122.88;;;11.46;82.70
50093;BME280;35974;47.752;10.290;2023-03-20T12:49:03;94127.09;;;11.60;85.94
50093;BME280;35974;47.752;10.290;2023-03-20T12:54:25;94127.06;;;11.47;82.54
50093;BME280;35974;47.752;10.290;2023-03-20T13:08:22;94120.63;;;11.49;80.06
50093;BME280;35974;47.752;10.290;2023-03-20T13:13:56;94129.34;;;12.35;82.25
50093;BME280;35974;47.752;10.290;2023-03-20T13:16:36;94100.72;;;12.27;82.60
50093;BME280;35974;47.752;10.290;2023-03-20T13:19:26;94127.66;;;12.48;79.28
50093;BME280;35974;47.752;10.290;2023-03-20T13:22:14;94083.44;;;11.86;81.24
50093;BME280;35974;47.752;10.290;2023-03-20T13:24:49;94116.22;;;12.35;78.50
50093;BME280;35974;47.752;10.290;2023-03-20T13:30:33;94116.75;;;11.92;77.99
50093;BME280;35974;47.752;10.290;2023-03-20T13:36:20;94110.59;;;12.70;74.62
50093;BME280;35974;47.752;10.290;2023-03-20T13:38:59;94087.16;;;12.75;75.82
50093;BME280;35974;47.752;10.290;2023-03-20T13:41:29;94108.66;;;12.91;74.64
50093;BME280;35974;47.752;10.290;2023-03-20T13:44:01;94074.06;;;12.62;76.17
50093;BME280;35974;47.752;10.290;2023-03-20T13:46:46;94087.91;;;12.82;77.21
50093;BME280;35974;47.752;10.290;2023-03-20T13:49:25;94117.06;;;12.68;75.24
50093;BME280;35974;47.752;10.290;2023-03-20T13:52:02;94111.00;;;12.67;77.39
50093;BME280;35974;47.752;10.290;2023-03-20T13:57:54;94112.69;;;12.55;77.16
50093;BME280;35974;47.752;10.290;2023-03-20T14:00:30;94090.94;;;12.41;77.12
50093;BME280;35974;47.752;10.290;2023-03-20T14:05:53;94091.53;;;11.78;75.32
50093;BME280;35974;47.752;10.290;2023-03-20T14:11:06;94111.34;;;11.67;76.09
50093;BME280;35974;47.752;10.290;2023-03-20T14:13:34;94080.88;;;11.72;77.32
50093;BME280;35974;47.752;10.290;2023-03-20T14:16:09;94106.84;;;12.07;73.88
50093;BME280;35974;47.752;10.290;2023-03-20T14:21:53;94084.38;;;11.26;77.60
50093;BME280;35974;47.752;10.290;2023-03-20T14:24:23;94104.13;;;11.22;78.66
50093;BME280;35974;47.752;10.290;2023-03-20T14:26:58;94051.94;;;11.14;77.50
50093;BME280;35974;47.752;10.290;2023-03-20T14:29:32;94085.97;;;11.14;79.36
50093;BME280;35974;47.752;10.290;2023-03-20T14:34:51;94082.28;;;11.82;76.63
50093;BME280;35974;47.752;10.290;2023-03-20T14:40:02;94085.53;;;11.70;77.71
50093;BME280;35974;47.752;10.290;2023-03-20T14:43:03;94097.59;;;11.85;78.38
50093;BME280;35974;47.752;10.290;2023-03-20T14:45:42;94084.53;;;12.37;77.75
50093;BME280;35974;47.752;10.290;2023-03-20T14:48:31;94060.13;;;12.68;76.67
50093;BME280;35974;47.752;10.290;2023-03-20T14:51:17;94045.19;;;12.62;76.49
50093;BME280;35974;47.752;10.290;2023-03-20T14:53:54;94083.00;;;12.16;75.16
50093;BME280;35974;47.752;10.290;2023-03-20T14:56:28;94074.81;;;12.37;76.98
50093;BME280;35974;47.752;10.290;2023-03-20T14:58:58;94036.66;;;12.03;76.71